sensor_id;sensor_type;location;lat;lon;timestamp;P1;durP1;ratioP1;P2;durP2;ratioP2
69738;SDS011;66905;51.012;4.724;2023-03-01T00:02:06;14.65;;;9.32;;
69738;SDS011;66905;51.012;4.724;2023-03-01T00:04:32;16.20;;;10.23;;
69738;SDS011;66905;51.012;4.724;2023-03-01T00:06:57;14.90;;;8.45;;
69738;SDS011;66905;51.012;4.724;2023-03-01T00:09:23;15.27;;;8.50;;
69738;SDS011;66905;51.012;4.724;2023-03-01T00:11:49;15.15;;;9.18;;
69738;SDS011;66905;51.012;4.724;2023-03-01T00:14:15;17.00;;;8.68;;
69738;SDS011;66905;51.012;4.724;2023-03-01T00:16:46;15.73;;;8.40;;
69738;SDS011;66905;51.012;4.724;2023-03-01T00:19:15;13.73;;;8.77;;
69738;SDS011;66905;51.012;4.724;2023-03-01T00:21:45;14.98;;;8.80;;
69738;SDS011;66905;51.012;4.724;2023-03-01T00:24:13;13.88;;;8.18;;
69738;SDS011;66905;51.012;4.724;2023-03-01T00:26:39;17.05;;;9.43;;
69738;SDS011;66905;51.012;4.724;2023-03-01T00:29:08;14.68;;;8.63;;
69738;SDS011;66905;51.012;4.724;2023-03-01T00:31:36;13.40;;;8.93;;
69738;SDS011;66905;51.012;4.724;2023-03-01T00:34:04;15.27;;;8.20;;
69738;SDS011;66905;51.012;4.724;2023-03-01T00:36:33;15.60;;;8.27;;
69738;SDS011;66905;51.012;4.724;2023-03-01T00:39:00;17.00;;;9.07;;
69738;SDS011;66905;51.012;4.724;2023-03-01T00:41:28;15.02;;;8.05;;
69738;SDS011;66905;51.012;4.724;2023-03-01T00:43:53;15.32;;;8.20;;
69738;SDS011;66905;51.012;4.724;2023-03-01T00:46:20;12.80;;;8.90;;
69738;SDS011;66905;51.012;4.724;2023-03-01T00:48:50;17.65;;;8.20;;
69738;SDS011;66905;51.012;4.724;2023-03-01T00:53:43;14.57;;;9.52;;
69738;SDS011;66905;51.012;4.724;2023-03-01T00:56:10;16.15;;;9.18;;
69738;SDS011;66905;51.012;4.724;2023-03-01T00:58:37;18.20;;;8.75;;
69738;SDS011;66905;51.012;4.724;2023-03-01T01:01:07;15.25;;;8.75;;
69738;SDS011;66905;51.012;4.724;2023-03-01T01:03:56;14.90;;;9.17;;
69738;SDS011;66905;51.012;4.724;2023-03-01T01:06:30;19.95;;;8.48;;
69738;SDS011;66905;51.012;4.724;2023-03-01T01:08:57;14.20;;;8.68;;
69738;SDS011;66905;51.012;4.724;2023-03-01T01:11:26;15.93;;;7.78;;
69738;SDS011;66905;51.012;4.724;2023-03-01T01:13:53;18.02;;;8.65;;
69738;SDS011;66905;51.012;4.724;2023-03-01T01:16:19;14.48;;;8.20;;
69738;SDS011;66905;51.012;4.724;2023-03-01T01:18:49;18.30;;;8.32;;
69738;SDS011;66905;51.012;4.724;2023-03-01T01:21:16;15.75;;;8.40;;
69738;SDS011;66905;51.012;4.724;2023-03-01T01:23:44;14.05;;;8.68;;
69738;SDS011;66905;51.012;4.724;2023-03-01T01:26:14;13.68;;;8.02;;
69738;SDS011;66905;51.012;4.724;2023-03-01T01:28:47;14.00;;;9.00;;
69738;SDS011;66905;51.012;4.724;2023-03-01T01:31:13;14.30;;;8.18;;
69738;SDS011;66905;51.012;4.724;2023-03-01T01:33:39;12.07;;;8.25;;
69738;SDS011;66905;51.012;4.724;2023-03-01T01:36:06;13.80;;;7.53;;
69738;SDS011;66905;51.012;4.724;2023-03-01T01:38:33;14.70;;;8.60;;
69738;SDS011;66905;51.012;4.724;2023-03-01T01:40:59;14.35;;;8.05;;
69738;SDS011;66905;51.012;4.724;2023-03-01T01:43:27;12.98;;;8.18;;
69738;SDS011;66905;51.012;4.724;2023-03-01T01:49:22;11.93;;;7.88;;
69738;SDS011;66905;51.012;4.724;2023-03-01T01:54:28;14.10;;;7.97;;
69738;SDS011;66905;51.012;4.724;2023-03-01T01:57:14;11.55;;;6.95;;
69738;SDS011;66905;51.012;4.724;2023-03-01T01:59:45;15.00;;;8.77;;
69738;SDS011;66905;51.012;4.724;2023-03-01T02:02:16;14.23;;;7.70;;
69738;SDS011;66905;51.012;4.724;2023-03-01T02:04:41;16.13;;;8.55;;
69738;SDS011;66905;51.012;4.724;2023-03-01T02:07:14;13.15;;;7.85;;
69738;SDS011;66905;51.012;4.724;2023-03-01T02:09:48;15.52;;;8.50;;
69738;SDS011;66905;51.012;4.724;2023-03-01T02:12:16;16.75;;;8.88;;
69738;SDS011;66905;51.012;4.724;2023-03-01T02:14:44;14.27;;;8.55;;
69738;SDS011;66905;51.012;4.724;2023-03-01T02:17:12;15.35;;;7.97;;
69738;SDS011;66905;51.012;4.724;2023-03-01T02:22:32;12.88;;;7.82;;
69738;SDS011;66905;51.012;4.724;2023-03-01T02:25:19;13.43;;;7.75;;
69738;SDS011;66905;51.012;4.724;2023-03-01T02:30:39;15.43;;;7.78;;
69738;SDS011;66905;51.012;4.724;2023-03-01T02:33:26;14.32;;;7.75;;
69738;SDS011;66905;51.012;4.724;2023-03-01T02:35:52;14.52;;;8.65;;
69738;SDS011;66905;51.012;4.724;2023-03-01T02:38:19;13.43;;;7.40;;
69738;SDS011;66905;51.012;4.724;2023-03-01T02:40:45;14.68;;;8.02;;
69738;SDS011;66905;51.012;4.724;2023-03-01T02:43:13;17.23;;;7.95;;
69738;SDS011;66905;51.012;4.724;2023-03-01T02:45:48;14.65;;;7.63;;
69738;SDS011;66905;51.012;4.724;2023-03-01T02:48:15;13.00;;;8.07;;
69738;SDS011;66905;51.012;4.724;2023-03-01T02:55:58;18.13;;;7.97;;
69738;SDS011;66905;51.012;4.724;2023-03-01T02:58:26;14.02;;;8.02;;
69738;SDS011;66905;51.012;4.724;2023-03-01T03:00:52;15.05;;;8.68;;
69738;SDS011;66905;51.012;4.724;2023-03-01T03:03:19;17.42;;;10.02;;
69738;SDS011;66905;51.012;4.724;2023-03-01T03:05:46;16.33;;;8.82;;
69738;SDS011;66905;51.012;4.724;2023-03-01T03:08:13;14.63;;;8.52;;
69738;SDS011;66905;51.012;4.724;2023-03-01T03:10:41;13.85;;;9.05;;
69738;SDS011;66905;51.012;4.724;2023-03-01T03:13:12;16.30;;;9.45;;
69738;SDS011;66905;51.012;4.724;2023-03-01T03:15:42;14.43;;;8.37;;
69738;SDS011;66905;51.012;4.724;2023-03-01T03:18:11;17.00;;;9.52;;
69738;SDS011;66905;51.012;4.724;2023-03-01T03:20:41;15.18;;;7.88;;
69738;SDS011;66905;51.012;4.724;2023-03-01T03:23:08;15.05;;;9.00;;
69738;SDS011;66905;51.012;4.724;2023-03-01T03:25:36;19.05;;;9.80;;
69738;SDS011;66905;51.012;4.724;2023-03-01T03:28:05;19.92;;;8.77;;
69738;SDS011;66905;51.012;4.724;2023-03-01T03:30:35;21.17;;;10.85;;
69738;SDS011;66905;51.012;4.724;2023-03-01T03:33:04;15.63;;;9.50;;
69738;SDS011;66905;51.012;4.724;2023-03-01T03:35:43;21.30;;;10.25;;
69738;SDS011;66905;51.012;4.724;2023-03-01T03:38:11;19.10;;;9.98;;
69738;SDS011;66905;51.012;4.724;2023-03-01T03:40:44;17.25;;;9.07;;
69738;SDS011;66905;51.012;4.724;2023-03-01T03:43:18;16.20;;;9.98;;
69738;SDS011;66905;51.012;4.724;2023-03-01T03:45:46;19.45;;;9.95;;
69738;SDS011;66905;51.012;4.724;2023-03-01T03:48:15;15.65;;;9.05;;
69738;SDS011;66905;51.012;4.724;2023-03-01T03:50:41;16.15;;;9.55;;
69738;SDS011;66905;51.012;4.724;2023-03-01T03:53:12;17.35;;;9.60;;
69738;SDS011;66905;51.012;4.724;2023-03-01T03:55:38;17.27;;;9.48;;
69738;SDS011;66905;51.012;4.724;2023-03-01T03:58:05;15.38;;;9.18;;
69738;SDS011;66905;51.012;4.724;2023-03-01T04:00:35;17.67;;;10.43;;
69738;SDS011;66905;51.012;4.724;2023-03-01T04:03:09;19.40;;;10.10;;
69738;SDS011;66905;51.012;4.724;2023-03-01T04:05:36;19.73;;;9.98;;
69738;SDS011;66905;51.012;4.724;2023-03-01T04:08:03;17.90;;;9.50;;
69738;SDS011;66905;51.012;4.724;2023-03-01T04:10:36;17.73;;;9.18;;
69738;SDS011;66905;51.012;4.724;2023-03-01T04:13:03;18.17;;;9.70;;
69738;SDS011;66905;51.012;4.724;2023-03-01T04:15:30;17.60;;;8.65;;
69738;SDS011;66905;51.012;4.724;2023-03-01T04:17:59;20.42;;;9.00;;
69738;SDS011;66905;51.012;4.724;2023-03-01T04:20:30;15.60;;;9.80;;
69738;SDS011;66905;51.012;4.724;2023-03-01T04:25:35;22.58;;;10.18;;
69738;SDS011;66905;51.012;4.724;2023-03-01T04:28:20;21.02;;;9.82;;
69738;SDS011;66905;51.012;4.724;2023-03-01T04:30:51;14.35;;;8.70;;
69738;SDS011;66905;51.012;4.724;2023-03-01T04:33:17;14.75;;;8.07;;
69738;SDS011;66905;51.012;4.724;2023-03-01T04:35:43;18.98;;;9.73;;
69738;SDS011;66905;51.012;4.724;2023-03-01T04:38:09;13.77;;;8.10;;
69738;SDS011;66905;51.012;4.724;2023-03-01T04:40:35;18.58;;;8.70;;
69738;SDS011;66905;51.012;4.724;2023-03-01T04:43:01;14.57;;;7.40;;
69738;SDS011;66905;51.012;4.724;2023-03-01T04:45:31;18.08;;;8.95;;
69738;SDS011;66905;51.012;4.724;2023-03-01T04:47:57;17.40;;;9.15;;
69738;SDS011;66905;51.012;4.724;2023-03-01T04:50:25;17.83;;;7.53;;
69738;SDS011;66905;51.012;4.724;2023-03-01T04:52:51;17.38;;;9.05;;
69738;SDS011;66905;51.012;4.724;2023-03-01T04:55:17;16.38;;;8.98;;
69738;SDS011;66905;51.012;4.724;2023-03-01T04:57:43;19.73;;;9.80;;
69738;SDS011;66905;51.012;4.724;2023-03-01T05:00:12;15.00;;;8.55;;
69738;SDS011;66905;51.012;4.724;2023-03-01T05:05:21;15.27;;;8.45;;
69738;SDS011;66905;51.012;4.724;2023-03-01T05:07:51;17.45;;;8.52;;
69738;SDS011;66905;51.012;4.724;2023-03-01T05:10:21;13.52;;;7.82;;
69738;SDS011;66905;51.012;4.724;2023-03-01T05:12:47;18.40;;;9.20;;
69738;SDS011;66905;51.012;4.724;2023-03-01T05:15:12;13.23;;;8.68;;
69738;SDS011;66905;51.012;4.724;2023-03-01T05:17:39;15.25;;;8.68;;
69738;SDS011;66905;51.012;4.724;2023-03-01T05:20:05;15.82;;;8.85;;
69738;SDS011;66905;51.012;4.724;2023-03-01T05:22:33;12.45;;;8.15;;
69738;SDS011;66905;51.012;4.724;2023-03-01T05:25:00;20.20;;;9.50;;
69738;SDS011;66905;51.012;4.724;2023-03-01T05:27:28;13.55;;;8.40;;
69738;SDS011;66905;51.012;4.724;2023-03-01T05:29:55;17.17;;;9.98;;
69738;SDS011;66905;51.012;4.724;2023-03-01T05:32:21;15.95;;;8.45;;
69738;SDS011;66905;51.012;4.724;2023-03-01T05:34:46;18.05;;;8.90;;
69738;SDS011;66905;51.012;4.724;2023-03-01T05:37:12;15.05;;;9.15;;
69738;SDS011;66905;51.012;4.724;2023-03-01T05:39:40;13.55;;;8.00;;
69738;SDS011;66905;51.012;4.724;2023-03-01T05:42:09;15.07;;;8.38;;
69738;SDS011;66905;51.012;4.724;2023-03-01T05:44:35;13.13;;;7.88;;
69738;SDS011;66905;51.012;4.724;2023-03-01T05:47:04;26.10;;;9.68;;
69738;SDS011;66905;51.012;4.724;2023-03-01T05:49:29;16.48;;;9.50;;
69738;SDS011;66905;51.012;4.724;2023-03-01T05:51:59;16.88;;;9.85;;
69738;SDS011;66905;51.012;4.724;2023-03-01T05:54:25;21.52;;;9.70;;
69738;SDS011;66905;51.012;4.724;2023-03-01T05:56:51;18.48;;;9.57;;
69738;SDS011;66905;51.012;4.724;2023-03-01T05:59:16;17.75;;;9.38;;
69738;SDS011;66905;51.012;4.724;2023-03-01T06:01:42;15.82;;;10.13;;
69738;SDS011;66905;51.012;4.724;2023-03-01T06:04:08;15.82;;;8.55;;
69738;SDS011;66905;51.012;4.724;2023-03-01T06:06:38;18.23;;;9.80;;
69738;SDS011;66905;51.012;4.724;2023-03-01T06:09:06;19.27;;;9.10;;
69738;SDS011;66905;51.012;4.724;2023-03-01T06:11:34;21.10;;;10.48;;
69738;SDS011;66905;51.012;4.724;2023-03-01T06:14:01;14.95;;;8.32;;
69738;SDS011;66905;51.012;4.724;2023-03-01T06:16:29;25.67;;;10.85;;
69738;SDS011;66905;51.012;4.724;2023-03-01T06:18:55;28.42;;;11.70;;
69738;SDS011;66905;51.012;4.724;2023-03-01T06:21:20;31.52;;;11.48;;
69738;SDS011;66905;51.012;4.724;2023-03-01T06:23:47;20.42;;;10.90;;
69738;SDS011;66905;51.012;4.724;2023-03-01T06:26:15;18.27;;;9.93;;
69738;SDS011;66905;51.012;4.724;2023-03-01T06:28:40;19.75;;;9.85;;
69738;SDS011;66905;51.012;4.724;2023-03-01T06:31:06;19.23;;;10.20;;
69738;SDS011;66905;51.012;4.724;2023-03-01T06:33:33;12.82;;;7.80;;
69738;SDS011;66905;51.012;4.724;2023-03-01T06:35:59;16.58;;;10.38;;
69738;SDS011;66905;51.012;4.724;2023-03-01T06:38:25;18.27;;;10.40;;
69738;SDS011;66905;51.012;4.724;2023-03-01T06:40:54;17.10;;;8.75;;
69738;SDS011;66905;51.012;4.724;2023-03-01T06:43:23;16.40;;;8.82;;
69738;SDS011;66905;51.012;4.724;2023-03-01T06:45:48;21.48;;;9.90;;
69738;SDS011;66905;51.012;4.724;2023-03-01T06:48:17;22.25;;;9.30;;
69738;SDS011;66905;51.012;4.724;2023-03-01T06:50:45;12.93;;;7.93;;
69738;SDS011;66905;51.012;4.724;2023-03-01T06:53:10;21.88;;;10.02;;
69738;SDS011;66905;51.012;4.724;2023-03-01T06:55:36;12.45;;;9.35;;
69738;SDS011;66905;51.012;4.724;2023-03-01T06:58:02;17.20;;;9.27;;
69738;SDS011;66905;51.012;4.724;2023-03-01T07:00:28;17.90;;;9.38;;
69738;SDS011;66905;51.012;4.724;2023-03-01T07:03:00;17.30;;;9.43;;
69738;SDS011;66905;51.012;4.724;2023-03-01T07:05:28;19.88;;;9.82;;
69738;SDS011;66905;51.012;4.724;2023-03-01T07:07:58;17.05;;;9.27;;
69738;SDS011;66905;51.012;4.724;2023-03-01T07:10:23;28.67;;;15.32;;
69738;SDS011;66905;51.012;4.724;2023-03-01T07:12:49;22.23;;;15.20;;
69738;SDS011;66905;51.012;4.724;2023-03-01T07:15:15;22.23;;;10.07;;
69738;SDS011;66905;51.012;4.724;2023-03-01T07:17:41;16.33;;;9.95;;
69738;SDS011;66905;51.012;4.724;2023-03-01T07:20:07;15.45;;;9.40;;
69738;SDS011;66905;51.012;4.724;2023-03-01T07:22:33;16.23;;;9.82;;
69738;SDS011;66905;51.012;4.724;2023-03-01T07:25:01;18.52;;;9.70;;
69738;SDS011;66905;51.012;4.724;2023-03-01T07:27:27;18.10;;;10.55;;
69738;SDS011;66905;51.012;4.724;2023-03-01T07:29:52;16.23;;;9.80;;
69738;SDS011;66905;51.012;4.724;2023-03-01T07:32:18;14.15;;;8.85;;
69738;SDS011;66905;51.012;4.724;2023-03-01T07:34:44;15.55;;;8.35;;
69738;SDS011;66905;51.012;4.724;2023-03-01T07:37:09;16.17;;;9.02;;
69738;SDS011;66905;51.012;4.724;2023-03-01T07:39:35;16.50;;;9.68;;
69738;SDS011;66905;51.012;4.724;2023-03-01T07:42:01;17.70;;;10.38;;
69738;SDS011;66905;51.012;4.724;2023-03-01T07:44:29;14.13;;;9.05;;
69738;SDS011;66905;51.012;4.724;2023-03-01T07:46:57;19.50;;;8.63;;
69738;SDS011;66905;51.012;4.724;2023-03-01T07:49:24;16.60;;;8.88;;
69738;SDS011;66905;51.012;4.724;2023-03-01T07:51:51;20.20;;;8.45;;
69738;SDS011;66905;51.012;4.724;2023-03-01T07:54:17;17.83;;;8.73;;
69738;SDS011;66905;51.012;4.724;2023-03-01T07:56:43;12.52;;;8.43;;
69738;SDS011;66905;51.012;4.724;2023-03-01T07:59:11;17.70;;;9.02;;
69738;SDS011;66905;51.012;4.724;2023-03-01T08:01:37;23.02;;;10.27;;
69738;SDS011;66905;51.012;4.724;2023-03-01T08:04:05;16.65;;;8.48;;
69738;SDS011;66905;51.012;4.724;2023-03-01T08:06:35;13.50;;;8.65;;
69738;SDS011;66905;51.012;4.724;2023-03-01T08:09:03;16.15;;;8.90;;
69738;SDS011;66905;51.012;4.724;2023-03-01T08:11:29;17.63;;;8.85;;
69738;SDS011;66905;51.012;4.724;2023-03-01T08:13:55;13.20;;;8.27;;
69738;SDS011;66905;51.012;4.724;2023-03-01T08:16:21;13.93;;;7.40;;
69738;SDS011;66905;51.012;4.724;2023-03-01T08:18:47;9.93;;;7.60;;
69738;SDS011;66905;51.012;4.724;2023-03-01T08:21:13;9.57;;;6.80;;
69738;SDS011;66905;51.012;4.724;2023-03-01T08:23:41;9.55;;;6.75;;
69738;SDS011;66905;51.012;4.724;2023-03-01T08:26:08;9.52;;;7.18;;
69738;SDS011;66905;51.012;4.724;2023-03-01T08:28:39;12.82;;;7.93;;
69738;SDS011;66905;51.012;4.724;2023-03-01T08:31:18;10.57;;;7.82;;
69738;SDS011;66905;51.012;4.724;2023-03-01T08:33:51;14.10;;;7.22;;
69738;SDS011;66905;51.012;4.724;2023-03-01T08:36:23;8.68;;;6.80;;
69738;SDS011;66905;51.012;4.724;2023-03-01T08:38:50;14.02;;;7.10;;
69738;SDS011;66905;51.012;4.724;2023-03-01T08:41:16;10.00;;;7.80;;
69738;SDS011;66905;51.012;4.724;2023-03-01T08:43:42;13.20;;;8.13;;
69738;SDS011;66905;51.012;4.724;2023-03-01T08:46:08;10.20;;;7.90;;
69738;SDS011;66905;51.012;4.724;2023-03-01T08:48:35;9.23;;;7.63;;
69738;SDS011;66905;51.012;4.724;2023-03-01T08:51:10;11.43;;;7.97;;
69738;SDS011;66905;51.012;4.724;2023-03-01T08:53:41;9.30;;;7.53;;
69738;SDS011;66905;51.012;4.724;2023-03-01T08:56:08;13.05;;;8.10;;
69738;SDS011;66905;51.012;4.724;2023-03-01T08:58:36;10.32;;;8.02;;
69738;SDS011;66905;51.012;4.724;2023-03-01T09:01:11;10.85;;;7.97;;
69738;SDS011;66905;51.012;4.724;2023-03-01T09:03:39;16.05;;;8.23;;
69738;SDS011;66905;51.012;4.724;2023-03-01T09:06:06;18.48;;;8.30;;
69738;SDS011;66905;51.012;4.724;2023-03-01T09:08:39;15.75;;;8.18;;
69738;SDS011;66905;51.012;4.724;2023-03-01T09:11:07;10.45;;;7.13;;
69738;SDS011;66905;51.012;4.724;2023-03-01T09:13:35;10.00;;;6.50;;
69738;SDS011;66905;51.012;4.724;2023-03-01T09:16:01;9.25;;;7.80;;
69738;SDS011;66905;51.012;4.724;2023-03-01T09:18:28;9.75;;;7.78;;
69738;SDS011;66905;51.012;4.724;2023-03-01T09:21:01;11.35;;;7.07;;
69738;SDS011;66905;51.012;4.724;2023-03-01T09:23:37;12.52;;;7.90;;
69738;SDS011;66905;51.012;4.724;2023-03-01T09:26:15;13.10;;;7.90;;
69738;SDS011;66905;51.012;4.724;2023-03-01T09:28:44;9.38;;;7.35;;
69738;SDS011;66905;51.012;4.724;2023-03-01T09:31:13;10.15;;;7.35;;
69738;SDS011;66905;51.012;4.724;2023-03-01T09:33:39;13.27;;;8.82;;
69738;SDS011;66905;51.012;4.724;2023-03-01T09:36:07;12.93;;;7.82;;
69738;SDS011;66905;51.012;4.724;2023-03-01T09:38:35;12.63;;;8.45;;
69738;SDS011;66905;51.012;4.724;2023-03-01T09:41:08;12.00;;;7.53;;
69738;SDS011;66905;51.012;4.724;2023-03-01T09:43:55;10.70;;;7.72;;
69738;SDS011;66905;51.012;4.724;2023-03-01T09:46:25;14.35;;;7.72;;
69738;SDS011;66905;51.012;4.724;2023-03-01T09:48:54;13.52;;;7.38;;
69738;SDS011;66905;51.012;4.724;2023-03-01T09:51:23;14.75;;;8.45;;
69738;SDS011;66905;51.012;4.724;2023-03-01T09:53:58;9.18;;;7.57;;
69738;SDS011;66905;51.012;4.724;2023-03-01T09:58:56;15.95;;;9.50;;
69738;SDS011;66905;51.012;4.724;2023-03-01T10:01:38;10.13;;;7.30;;
69738;SDS011;66905;51.012;4.724;2023-03-01T10:09:39;12.43;;;9.10;;
69738;SDS011;66905;51.012;4.724;2023-03-01T10:12:33;20.30;;;9.50;;
69738;SDS011;66905;51.012;4.724;2023-03-01T10:15:02;12.38;;;8.88;;
69738;SDS011;66905;51.012;4.724;2023-03-01T10:17:44;18.13;;;9.70;;
69738;SDS011;66905;51.012;4.724;2023-03-01T10:20:22;13.13;;;8.77;;
69738;SDS011;66905;51.012;4.724;2023-03-01T10:22:58;15.32;;;9.70;;
69738;SDS011;66905;51.012;4.724;2023-03-01T10:25:35;11.45;;;8.60;;
69738;SDS011;66905;51.012;4.724;2023-03-01T10:28:05;13.15;;;9.43;;
69738;SDS011;66905;51.012;4.724;2023-03-01T10:30:52;10.25;;;7.35;;
69738;SDS011;66905;51.012;4.724;2023-03-01T10:35:44;11.57;;;8.20;;
69738;SDS011;66905;51.012;4.724;2023-03-01T10:38:15;13.85;;;8.23;;
69738;SDS011;66905;51.012;4.724;2023-03-01T10:43:16;13.27;;;8.20;;
69738;SDS011;66905;51.012;4.724;2023-03-01T10:45:42;9.20;;;7.18;;
69738;SDS011;66905;51.012;4.724;2023-03-01T10:53:37;8.93;;;7.00;;
69738;SDS011;66905;51.012;4.724;2023-03-01T10:56:07;12.98;;;7.30;;
69738;SDS011;66905;51.012;4.724;2023-03-01T10:58:35;9.02;;;7.45;;
69738;SDS011;66905;51.012;4.724;2023-03-01T11:06:36;9.77;;;7.32;;
69738;SDS011;66905;51.012;4.724;2023-03-01T11:09:13;11.05;;;6.93;;
69738;SDS011;66905;51.012;4.724;2023-03-01T11:11:40;10.60;;;7.75;;
69738;SDS011;66905;51.012;4.724;2023-03-01T11:16:34;11.57;;;7.57;;
69738;SDS011;66905;51.012;4.724;2023-03-01T11:21:41;10.13;;;8.10;;
69738;SDS011;66905;51.012;4.724;2023-03-01T11:24:12;10.57;;;8.07;;
69738;SDS011;66905;51.012;4.724;2023-03-01T11:26:45;11.18;;;7.63;;
69738;SDS011;66905;51.012;4.724;2023-03-01T11:29:26;11.05;;;7.65;;
69738;SDS011;66905;51.012;4.724;2023-03-01T11:31:58;8.95;;;6.97;;
69738;SDS011;66905;51.012;4.724;2023-03-01T11:37:08;10.35;;;8.18;;
69738;SDS011;66905;51.012;4.724;2023-03-01T11:39:54;11.25;;;7.82;;
69738;SDS011;66905;51.012;4.724;2023-03-01T11:45:08;11.88;;;7.32;;
69738;SDS011;66905;51.012;4.724;2023-03-01T11:57:59;10.55;;;8.10;;
69738;SDS011;66905;51.012;4.724;2023-03-01T12:03:38;9.55;;;7.47;;
69738;SDS011;66905;51.012;4.724;2023-03-01T12:06:50;10.82;;;7.68;;
69738;SDS011;66905;51.012;4.724;2023-03-01T12:09:31;12.00;;;8.13;;
69738;SDS011;66905;51.012;4.724;2023-03-01T12:20:39;8.90;;;7.22;;
69738;SDS011;66905;51.012;4.724;2023-03-01T12:26:13;9.27;;;7.50;;
69738;SDS011;66905;51.012;4.724;2023-03-01T12:47:26;14.55;;;8.13;;
69738;SDS011;66905;51.012;4.724;2023-03-01T12:53:00;12.50;;;8.15;;
69738;SDS011;66905;51.012;4.724;2023-03-01T13:06:32;10.27;;;7.88;;
69738;SDS011;66905;51.012;4.724;2023-03-01T13:10:02;9.38;;;7.85;;
69738;SDS011;66905;51.012;4.724;2023-03-01T13:17:57;14.35;;;8.18;;
69738;SDS011;66905;51.012;4.724;2023-03-01T13:20:51;8.77;;;6.65;;
69738;SDS011;66905;51.012;4.724;2023-03-01T13:28:36;11.38;;;7.57;;
69738;SDS011;66905;51.012;4.724;2023-03-01T13:33:50;10.23;;;8.32;;
69738;SDS011;66905;51.012;4.724;2023-03-01T13:44:28;12.82;;;7.90;;
69738;SDS011;66905;51.012;4.724;2023-03-01T13:47:07;13.40;;;7.30;;
69738;SDS011;66905;51.012;4.724;2023-03-01T13:49:43;8.53;;;6.83;;
69738;SDS011;66905;51.012;4.724;2023-03-01T13:57:42;11.02;;;7.40;;
69738;SDS011;66905;51.012;4.724;2023-03-01T14:03:02;9.20;;;7.47;;
69738;SDS011;66905;51.012;4.724;2023-03-01T14:05:58;20.05;;;10.73;;
69738;SDS011;66905;51.012;4.724;2023-03-01T14:08:32;11.48;;;7.75;;
69738;SDS011;66905;51.012;4.724;2023-03-01T14:11:07;15.70;;;9.43;;
69738;SDS011;66905;51.012;4.724;2023-03-01T14:13:43;10.68;;;8.18;;
69738;SDS011;66905;51.012;4.724;2023-03-01T14:18:43;9.68;;;7.50;;
69738;SDS011;66905;51.012;4.724;2023-03-01T14:21:30;12.00;;;7.95;;
69738;SDS011;66905;51.012;4.724;2023-03-01T14:23:56;11.60;;;7.63;;
69738;SDS011;66905;51.012;4.724;2023-03-01T14:26:23;12.55;;;8.27;;
69738;SDS011;66905;51.012;4.724;2023-03-01T14:28:49;9.85;;;6.78;;
69738;SDS011;66905;51.012;4.724;2023-03-01T14:31:29;10.85;;;7.57;;
69738;SDS011;66905;51.012;4.724;2023-03-01T14:34:16;11.75;;;7.50;;
69738;SDS011;66905;51.012;4.724;2023-03-01T14:36:45;11.60;;;7.63;;
69738;SDS011;66905;51.012;4.724;2023-03-01T14:39:18;9.38;;;7.18;;
69738;SDS011;66905;51.012;4.724;2023-03-01T14:41:48;9.40;;;6.95;;
69738;SDS011;66905;51.012;4.724;2023-03-01T14:44:18;11.10;;;7.63;;
69738;SDS011;66905;51.012;4.724;2023-03-01T14:46:53;12.32;;;8.18;;
69738;SDS011;66905;51.012;4.724;2023-03-01T14:49:21;12.20;;;7.75;;
69738;SDS011;66905;51.012;4.724;2023-03-01T14:51:55;8.82;;;7.25;;
69738;SDS011;66905;51.012;4.724;2023-03-01T14:57:15;12.02;;;7.30;;
69738;SDS011;66905;51.012;4.724;2023-03-01T14:59:49;11.85;;;6.35;;
69738;SDS011;66905;51.012;4.724;2023-03-01T15:02:23;11.07;;;6.33;;
69738;SDS011;66905;51.012;4.724;2023-03-01T15:04:52;10.30;;;6.47;;
69738;SDS011;66905;51.012;4.724;2023-03-01T15:07:21;11.38;;;6.88;;
69738;SDS011;66905;51.012;4.724;2023-03-01T15:09:53;9.38;;;6.65;;
69738;SDS011;66905;51.012;4.724;2023-03-01T15:14:56;8.52;;;6.40;;
69738;SDS011;66905;51.012;4.724;2023-03-01T15:17:26;13.75;;;6.97;;
69738;SDS011;66905;51.012;4.724;2023-03-01T15:20:00;8.50;;;6.07;;
69738;SDS011;66905;51.012;4.724;2023-03-01T15:22:29;9.63;;;6.70;;
69738;SDS011;66905;51.012;4.724;2023-03-01T15:24:55;7.45;;;5.88;;
69738;SDS011;66905;51.012;4.724;2023-03-01T15:27:24;8.43;;;5.80;;
69738;SDS011;66905;51.012;4.724;2023-03-01T15:29:57;11.05;;;6.85;;
69738;SDS011;66905;51.012;4.724;2023-03-01T15:34:56;14.18;;;7.15;;
69738;SDS011;66905;51.012;4.724;2023-03-01T15:40:16;10.65;;;6.60;;
69738;SDS011;66905;51.012;4.724;2023-03-01T15:42:45;9.65;;;6.68;;
69738;SDS011;66905;51.012;4.724;2023-03-01T15:47:39;9.90;;;6.35;;
69738;SDS011;66905;51.012;4.724;2023-03-01T15:50:16;11.77;;;6.40;;
69738;SDS011;66905;51.012;4.724;2023-03-01T15:52:45;7.97;;;5.93;;
69738;SDS011;66905;51.012;4.724;2023-03-01T15:55:19;8.88;;;5.82;;
69738;SDS011;66905;51.012;4.724;2023-03-01T15:57:45;8.07;;;6.72;;
69738;SDS011;66905;51.012;4.724;2023-03-01T16:00:12;10.48;;;5.82;;
69738;SDS011;66905;51.012;4.724;2023-03-01T16:02:38;11.90;;;6.53;;
69738;SDS011;66905;51.012;4.724;2023-03-01T16:05:08;9.35;;;6.70;;
69738;SDS011;66905;51.012;4.724;2023-03-01T16:07:42;10.48;;;6.57;;
69738;SDS011;66905;51.012;4.724;2023-03-01T16:10:08;8.63;;;6.47;;
69738;SDS011;66905;51.012;4.724;2023-03-01T16:12:34;10.02;;;6.35;;
69738;SDS011;66905;51.012;4.724;2023-03-01T16:15:00;8.50;;;6.35;;
69738;SDS011;66905;51.012;4.724;2023-03-01T16:17:26;9.02;;;6.15;;
69738;SDS011;66905;51.012;4.724;2023-03-01T16:19:53;10.95;;;5.68;;
69738;SDS011;66905;51.012;4.724;2023-03-01T16:22:19;11.73;;;6.30;;
69738;SDS011;66905;51.012;4.724;2023-03-01T16:24:49;7.28;;;5.57;;
69738;SDS011;66905;51.012;4.724;2023-03-01T16:27:17;13.55;;;6.30;;
69738;SDS011;66905;51.012;4.724;2023-03-01T16:29:45;9.25;;;6.53;;
69738;SDS011;66905;51.012;4.724;2023-03-01T16:32:11;9.60;;;6.35;;
69738;SDS011;66905;51.012;4.724;2023-03-01T16:34:39;9.82;;;5.78;;
69738;SDS011;66905;51.012;4.724;2023-03-01T16:37:05;9.50;;;6.13;;
69738;SDS011;66905;51.012;4.724;2023-03-01T16:39:31;10.70;;;7.18;;
69738;SDS011;66905;51.012;4.724;2023-03-01T16:41:58;8.18;;;5.35;;
69738;SDS011;66905;51.012;4.724;2023-03-01T16:44:28;7.57;;;5.78;;
69738;SDS011;66905;51.012;4.724;2023-03-01T16:46:58;8.60;;;6.35;;
69738;SDS011;66905;51.012;4.724;2023-03-01T16:49:24;11.60;;;6.50;;
69738;SDS011;66905;51.012;4.724;2023-03-01T16:51:49;8.85;;;6.13;;
69738;SDS011;66905;51.012;4.724;2023-03-01T16:54:15;10.68;;;6.40;;
69738;SDS011;66905;51.012;4.724;2023-03-01T16:56:43;13.27;;;6.05;;
69738;SDS011;66905;51.012;4.724;2023-03-01T16:59:09;8.23;;;6.55;;
69738;SDS011;66905;51.012;4.724;2023-03-01T17:01:34;15.05;;;6.28;;
69738;SDS011;66905;51.012;4.724;2023-03-01T17:04:04;10.88;;;6.97;;
69738;SDS011;66905;51.012;4.724;2023-03-01T17:06:30;6.75;;;5.38;;
69738;SDS011;66905;51.012;4.724;2023-03-01T17:08:58;9.63;;;6.28;;
69738;SDS011;66905;51.012;4.724;2023-03-01T17:11:24;13.55;;;6.43;;
69738;SDS011;66905;51.012;4.724;2023-03-01T17:13:50;11.95;;;6.15;;
69738;SDS011;66905;51.012;4.724;2023-03-01T17:16:17;11.63;;;6.85;;
69738;SDS011;66905;51.012;4.724;2023-03-01T17:18:44;14.68;;;7.30;;
69738;SDS011;66905;51.012;4.724;2023-03-01T17:21:10;10.10;;;6.78;;
69738;SDS011;66905;51.012;4.724;2023-03-01T17:23:37;13.70;;;7.70;;
69738;SDS011;66905;51.012;4.724;2023-03-01T17:26:07;10.73;;;6.80;;
69738;SDS011;66905;51.012;4.724;2023-03-01T17:28:35;9.77;;;6.95;;
69738;SDS011;66905;51.012;4.724;2023-03-01T17:31:02;17.77;;;7.35;;
69738;SDS011;66905;51.012;4.724;2023-03-01T17:33:31;12.45;;;6.88;;